sensor_id;sensor_type;location;lat;lon;timestamp;P1;durP1;ratioP1;P2;durP2;ratioP2
13040;SDS011;6587;42.728;23.288;2023-03-04T00:00:37;21.53;;;12.43;;
13040;SDS011;6587;42.728;23.288;2023-03-04T00:03:07;22.77;;;12.70;;
13040;SDS011;6587;42.728;23.288;2023-03-04T00:05:35;23.60;;;12.50;;
13040;SDS011;6587;42.728;23.288;2023-03-04T00:08:01;21.33;;;12.77;;
13040;SDS011;6587;42.728;23.288;2023-03-04T00:10:29;21.57;;;12.13;;
13040;SDS011;6587;42.728;23.288;2023-03-04T00:12:56;20.27;;;12.03;;
13040;SDS011;6587;42.728;23.288;2023-03-04T00:15:23;22.90;;;12.73;;
13040;SDS011;6587;42.728;23.288;2023-03-04T00:17:49;20.70;;;12.43;;
13040;SDS011;6587;42.728;23.288;2023-03-04T00:20:16;24.60;;;13.57;;
13040;SDS011;6587;42.728;23.288;2023-03-04T00:22:43;24.27;;;12.90;;
13040;SDS011;6587;42.728;23.288;2023-03-04T00:25:09;24.07;;;13.70;;
13040;SDS011;6587;42.728;23.288;2023-03-04T00:27:37;25.10;;;13.77;;
13040;SDS011;6587;42.728;23.288;2023-03-04T00:30:04;23.93;;;14.17;;
13040;SDS011;6587;42.728;23.288;2023-03-04T00:32:31;25.97;;;14.20;;
13040;SDS011;6587;42.728;23.288;2023-03-04T00:34:57;23.07;;;14.30;;
13040;SDS011;6587;42.728;23.288;2023-03-04T00:37:24;25.30;;;14.47;;
13040;SDS011;6587;42.728;23.288;2023-03-04T00:39:51;25.23;;;14.37;;
13040;SDS011;6587;42.728;23.288;2023-03-04T00:42:17;25.33;;;14.77;;
13040;SDS011;6587;42.728;23.288;2023-03-04T00:44:45;22.67;;;14.47;;
13040;SDS011;6587;42.728;23.288;2023-03-04T00:47:13;23.20;;;13.90;;
13040;SDS011;6587;42.728;23.288;2023-03-04T00:49:40;26.07;;;15.20;;
13040;SDS011;6587;42.728;23.288;2023-03-04T00:52:07;24.13;;;13.50;;
13040;SDS011;6587;42.728;23.288;2023-03-04T00:54:34;26.03;;;14.50;;
13040;SDS011;6587;42.728;23.288;2023-03-04T00:57:01;25.00;;;14.30;;
13040;SDS011;6587;42.728;23.288;2023-03-04T00:59:27;25.37;;;13.70;;
13040;SDS011;6587;42.728;23.288;2023-03-04T01:01:55;25.23;;;13.87;;
13040;SDS011;6587;42.728;23.288;2023-03-04T01:04:22;22.33;;;13.17;;
13040;SDS011;6587;42.728;23.288;2023-03-04T01:06:48;24.80;;;14.27;;
13040;SDS011;6587;42.728;23.288;2023-03-04T01:09:15;24.60;;;14.23;;
13040;SDS011;6587;42.728;23.288;2023-03-04T01:11:42;25.43;;;14.33;;
13040;SDS011;6587;42.728;23.288;2023-03-04T01:14:09;23.57;;;13.53;;
13040;SDS011;6587;42.728;23.288;2023-03-04T01:16:36;25.33;;;14.87;;
13040;SDS011;6587;42.728;23.288;2023-03-04T01:19:04;25.13;;;13.87;;
13040;SDS011;6587;42.728;23.288;2023-03-04T01:21:30;23.53;;;14.07;;
13040;SDS011;6587;42.728;23.288;2023-03-04T01:23:57;26.43;;;13.80;;
13040;SDS011;6587;42.728;23.288;2023-03-04T01:26:23;24.33;;;14.03;;
13040;SDS011;6587;42.728;23.288;2023-03-04T01:28:51;24.47;;;14.97;;
13040;SDS011;6587;42.728;23.288;2023-03-04T01:31:18;25.37;;;14.07;;
13040;SDS011;6587;42.728;23.288;2023-03-04T01:33:45;24.47;;;14.47;;
13040;SDS011;6587;42.728;23.288;2023-03-04T01:36:12;25.23;;;14.67;;
13040;SDS011;6587;42.728;23.288;2023-03-04T01:38:39;21.73;;;13.00;;
13040;SDS011;6587;42.728;23.288;2023-03-04T01:41:06;23.43;;;13.30;;
13040;SDS011;6587;42.728;23.288;2023-03-04T01:43:33;23.00;;;13.50;;
13040;SDS011;6587;42.728;23.288;2023-03-04T01:46:00;21.80;;;12.57;;
13040;SDS011;6587;42.728;23.288;2023-03-04T01:48:28;22.23;;;13.50;;
13040;SDS011;6587;42.728;23.288;2023-03-04T01:50:56;26.57;;;13.63;;
13040;SDS011;6587;42.728;23.288;2023-03-04T01:53:28;26.37;;;13.47;;
13040;SDS011;6587;42.728;23.288;2023-03-04T01:55:56;21.33;;;12.77;;
13040;SDS011;6587;42.728;23.288;2023-03-04T01:58:23;17.63;;;11.40;;
13040;SDS011;6587;42.728;23.288;2023-03-04T02:00:50;24.17;;;13.70;;
13040;SDS011;6587;42.728;23.288;2023-03-04T02:03:17;21.93;;;13.30;;
13040;SDS011;6587;42.728;23.288;2023-03-04T02:05:46;22.20;;;12.70;;
13040;SDS011;6587;42.728;23.288;2023-03-04T02:08:13;20.70;;;12.60;;
13040;SDS011;6587;42.728;23.288;2023-03-04T02:10:42;21.17;;;12.23;;
13040;SDS011;6587;42.728;23.288;2023-03-04T02:13:08;23.53;;;12.97;;
13040;SDS011;6587;42.728;23.288;2023-03-04T02:15:36;21.03;;;11.83;;
13040;SDS011;6587;42.728;23.288;2023-03-04T02:18:04;20.17;;;12.10;;
13040;SDS011;6587;42.728;23.288;2023-03-04T02:20:34;21.17;;;12.90;;
13040;SDS011;6587;42.728;23.288;2023-03-04T02:23:06;21.60;;;11.90;;
13040;SDS011;6587;42.728;23.288;2023-03-04T02:25:35;21.50;;;12.10;;
13040;SDS011;6587;42.728;23.288;2023-03-04T02:28:06;22.53;;;12.73;;
13040;SDS011;6587;42.728;23.288;2023-03-04T02:30:32;17.83;;;11.50;;
13040;SDS011;6587;42.728;23.288;2023-03-04T02:32:59;23.40;;;12.53;;
13040;SDS011;6587;42.728;23.288;2023-03-04T02:35:26;19.70;;;12.40;;
13040;SDS011;6587;42.728;23.288;2023-03-04T02:37:53;20.17;;;12.43;;
13040;SDS011;6587;42.728;23.288;2023-03-04T02:40:22;21.47;;;13.13;;
13040;SDS011;6587;42.728;23.288;2023-03-04T02:42:49;19.33;;;12.30;;
13040;SDS011;6587;42.728;23.288;2023-03-04T02:48:05;19.37;;;11.40;;
13040;SDS011;6587;42.728;23.288;2023-03-04T02:50:33;19.57;;;12.17;;
13040;SDS011;6587;42.728;23.288;2023-03-04T02:53:00;19.20;;;12.00;;
13040;SDS011;6587;42.728;23.288;2023-03-04T02:55:26;21.10;;;12.90;;
13040;SDS011;6587;42.728;23.288;2023-03-04T02:57:54;22.50;;;13.40;;
13040;SDS011;6587;42.728;23.288;2023-03-04T03:00:22;23.63;;;12.93;;
13040;SDS011;6587;42.728;23.288;2023-03-04T03:02:48;21.20;;;11.80;;
13040;SDS011;6587;42.728;23.288;2023-03-04T03:05:17;21.97;;;12.87;;
13040;SDS011;6587;42.728;23.288;2023-03-04T03:07:44;22.13;;;12.93;;
13040;SDS011;6587;42.728;23.288;2023-03-04T03:10:11;22.53;;;13.00;;
13040;SDS011;6587;42.728;23.288;2023-03-04T03:12:39;21.27;;;12.47;;
13040;SDS011;6587;42.728;23.288;2023-03-04T03:15:06;21.87;;;12.50;;
13040;SDS011;6587;42.728;23.288;2023-03-04T03:17:32;19.33;;;11.10;;
13040;SDS011;6587;42.728;23.288;2023-03-04T03:19:59;19.07;;;11.37;;
13040;SDS011;6587;42.728;23.288;2023-03-04T03:22:27;18.57;;;10.97;;
13040;SDS011;6587;42.728;23.288;2023-03-04T03:24:54;22.47;;;12.30;;
13040;SDS011;6587;42.728;23.288;2023-03-04T03:27:20;24.87;;;12.67;;
13040;SDS011;6587;42.728;23.288;2023-03-04T03:29:48;24.90;;;13.03;;
13040;SDS011;6587;42.728;23.288;2023-03-04T03:32:15;23.77;;;13.60;;
13040;SDS011;6587;42.728;23.288;2023-03-04T03:34:41;19.87;;;12.23;;
13040;SDS011;6587;42.728;23.288;2023-03-04T03:37:08;21.23;;;13.10;;
13040;SDS011;6587;42.728;23.288;2023-03-04T03:39:36;21.87;;;12.13;;
13040;SDS011;6587;42.728;23.288;2023-03-04T03:42:03;25.53;;;13.37;;
13040;SDS011;6587;42.728;23.288;2023-03-04T03:44:29;27.50;;;13.67;;
13040;SDS011;6587;42.728;23.288;2023-03-04T03:46:56;22.87;;;13.30;;
13040;SDS011;6587;42.728;23.288;2023-03-04T03:49:22;26.17;;;14.20;;
13040;SDS011;6587;42.728;23.288;2023-03-04T03:51:49;25.10;;;14.60;;
13040;SDS011;6587;42.728;23.288;2023-03-04T03:54:16;28.70;;;13.90;;
13040;SDS011;6587;42.728;23.288;2023-03-04T03:56:44;24.40;;;14.10;;
13040;SDS011;6587;42.728;23.288;2023-03-04T03:59:10;25.20;;;15.43;;
13040;SDS011;6587;42.728;23.288;2023-03-04T04:01:37;32.27;;;17.90;;
13040;SDS011;6587;42.728;23.288;2023-03-04T04:04:03;29.70;;;18.10;;
13040;SDS011;6587;42.728;23.288;2023-03-04T04:06:30;30.17;;;18.07;;
13040;SDS011;6587;42.728;23.288;2023-03-04T04:08:57;26.07;;;16.43;;
13040;SDS011;6587;42.728;23.288;2023-03-04T04:11:23;29.43;;;17.73;;
13040;SDS011;6587;42.728;23.288;2023-03-04T04:13:51;30.87;;;18.30;;
13040;SDS011;6587;42.728;23.288;2023-03-04T04:16:18;27.00;;;16.40;;
13040;SDS011;6587;42.728;23.288;2023-03-04T04:18:44;27.23;;;16.73;;
13040;SDS011;6587;42.728;23.288;2023-03-04T04:21:11;27.23;;;16.57;;
13040;SDS011;6587;42.728;23.288;2023-03-04T04:23:38;30.13;;;17.47;;
13040;SDS011;6587;42.728;23.288;2023-03-04T04:26:04;30.23;;;17.63;;
13040;SDS011;6587;42.728;23.288;2023-03-04T04:28:32;28.87;;;17.27;;
13040;SDS011;6587;42.728;23.288;2023-03-04T04:31:00;28.50;;;18.07;;
13040;SDS011;6587;42.728;23.288;2023-03-04T04:33:27;30.70;;;18.07;;
13040;SDS011;6587;42.728;23.288;2023-03-04T04:35:53;27.60;;;17.80;;
13040;SDS011;6587;42.728;23.288;2023-03-04T04:38:20;28.90;;;18.23;;
13040;SDS011;6587;42.728;23.288;2023-03-04T04:40:46;36.30;;;20.47;;
13040;SDS011;6587;42.728;23.288;2023-03-04T04:43:13;35.40;;;21.47;;
13040;SDS011;6587;42.728;23.288;2023-03-04T04:45:40;39.30;;;25.50;;
13040;SDS011;6587;42.728;23.288;2023-03-04T04:48:08;39.03;;;23.90;;
13040;SDS011;6587;42.728;23.288;2023-03-04T04:50:35;41.77;;;25.27;;
13040;SDS011;6587;42.728;23.288;2023-03-04T04:53:02;41.57;;;23.63;;
13040;SDS011;6587;42.728;23.288;2023-03-04T04:55:28;49.53;;;27.43;;
13040;SDS011;6587;42.728;23.288;2023-03-04T04:57:55;43.03;;;24.43;;
13040;SDS011;6587;42.728;23.288;2023-03-04T05:00:21;55.80;;;28.73;;
13040;SDS011;6587;42.728;23.288;2023-03-04T05:02:48;49.13;;;27.53;;
13040;SDS011;6587;42.728;23.288;2023-03-04T05:05:16;48.83;;;28.07;;
13040;SDS011;6587;42.728;23.288;2023-03-04T05:07:43;51.77;;;29.00;;
13040;SDS011;6587;42.728;23.288;2023-03-04T05:10:10;51.50;;;28.47;;
13040;SDS011;6587;42.728;23.288;2023-03-04T05:12:36;49.50;;;29.63;;
13040;SDS011;6587;42.728;23.288;2023-03-04T05:15:03;48.73;;;26.70;;
13040;SDS011;6587;42.728;23.288;2023-03-04T05:17:30;51.37;;;28.67;;
13040;SDS011;6587;42.728;23.288;2023-03-04T05:19:56;47.53;;;28.57;;
13040;SDS011;6587;42.728;23.288;2023-03-04T05:22:24;38.60;;;22.57;;
13040;SDS011;6587;42.728;23.288;2023-03-04T05:24:51;42.80;;;26.20;;
13040;SDS011;6587;42.728;23.288;2023-03-04T05:27:17;69.80;;;36.53;;
13040;SDS011;6587;42.728;23.288;2023-03-04T05:29:44;78.83;;;42.10;;
13040;SDS011;6587;42.728;23.288;2023-03-04T05:32:11;79.70;;;40.13;;
13040;SDS011;6587;42.728;23.288;2023-03-04T05:34:37;57.87;;;30.33;;
13040;SDS011;6587;42.728;23.288;2023-03-04T05:37:04;51.83;;;29.80;;
13040;SDS011;6587;42.728;23.288;2023-03-04T05:39:32;38.00;;;21.77;;
13040;SDS011;6587;42.728;23.288;2023-03-04T05:41:58;33.50;;;21.07;;
13040;SDS011;6587;42.728;23.288;2023-03-04T05:44:25;34.03;;;19.83;;
13040;SDS011;6587;42.728;23.288;2023-03-04T05:46:51;32.97;;;19.67;;
13040;SDS011;6587;42.728;23.288;2023-03-04T05:49:18;50.83;;;31.97;;
13040;SDS011;6587;42.728;23.288;2023-03-04T05:51:45;54.03;;;34.17;;
13040;SDS011;6587;42.728;23.288;2023-03-04T05:54:11;50.47;;;33.60;;
13040;SDS011;6587;42.728;23.288;2023-03-04T05:56:39;52.40;;;31.47;;
13040;SDS011;6587;42.728;23.288;2023-03-04T05:59:06;51.03;;;30.03;;
13040;SDS011;6587;42.728;23.288;2023-03-04T06:01:33;45.20;;;27.70;;
13040;SDS011;6587;42.728;23.288;2023-03-04T06:03:59;43.77;;;27.37;;
13040;SDS011;6587;42.728;23.288;2023-03-04T06:06:26;49.30;;;29.33;;
13040;SDS011;6587;42.728;23.288;2023-03-04T06:08:52;48.00;;;30.73;;
13040;SDS011;6587;42.728;23.288;2023-03-04T06:11:19;52.90;;;32.10;;
13040;SDS011;6587;42.728;23.288;2023-03-04T06:13:47;46.37;;;29.63;;
13040;SDS011;6587;42.728;23.288;2023-03-04T06:16:13;47.63;;;30.07;;
13040;SDS011;6587;42.728;23.288;2023-03-04T06:18:40;44.13;;;28.37;;
13040;SDS011;6587;42.728;23.288;2023-03-04T06:21:07;44.03;;;24.30;;
13040;SDS011;6587;42.728;23.288;2023-03-04T06:23:33;39.03;;;23.53;;
13040;SDS011;6587;42.728;23.288;2023-03-04T06:26:00;35.47;;;20.67;;
13040;SDS011;6587;42.728;23.288;2023-03-04T06:28:26;41.03;;;22.63;;
13040;SDS011;6587;42.728;23.288;2023-03-04T06:30:55;95.87;;;43.67;;
13040;SDS011;6587;42.728;23.288;2023-03-04T06:33:22;89.07;;;39.70;;
13040;SDS011;6587;42.728;23.288;2023-03-04T06:35:52;37.47;;;21.87;;
13040;SDS011;6587;42.728;23.288;2023-03-04T06:38:19;37.83;;;22.40;;
13040;SDS011;6587;42.728;23.288;2023-03-04T06:40:45;37.10;;;21.80;;
13040;SDS011;6587;42.728;23.288;2023-03-04T06:43:12;39.97;;;23.43;;
13040;SDS011;6587;42.728;23.288;2023-03-04T06:45:39;58.03;;;35.43;;
13040;SDS011;6587;42.728;23.288;2023-03-04T06:48:07;46.93;;;28.17;;
13040;SDS011;6587;42.728;23.288;2023-03-04T06:50:33;41.23;;;21.83;;
13040;SDS011;6587;42.728;23.288;2023-03-04T06:53:00;33.73;;;19.50;;
13040;SDS011;6587;42.728;23.288;2023-03-04T06:55:26;35.10;;;20.83;;
13040;SDS011;6587;42.728;23.288;2023-03-04T06:57:53;27.30;;;16.03;;
13040;SDS011;6587;42.728;23.288;2023-03-04T07:00:20;31.13;;;17.33;;
13040;SDS011;6587;42.728;23.288;2023-03-04T07:02:48;20.37;;;12.23;;
13040;SDS011;6587;42.728;23.288;2023-03-04T07:05:16;19.13;;;10.63;;
13040;SDS011;6587;42.728;23.288;2023-03-04T07:07:43;21.80;;;12.23;;
13040;SDS011;6587;42.728;23.288;2023-03-04T07:10:10;18.80;;;11.83;;
13040;SDS011;6587;42.728;23.288;2023-03-04T07:12:37;19.63;;;11.20;;
13040;SDS011;6587;42.728;23.288;2023-03-04T07:15:04;19.87;;;12.20;;
13040;SDS011;6587;42.728;23.288;2023-03-04T07:17:30;20.50;;;11.43;;
13040;SDS011;6587;42.728;23.288;2023-03-04T07:19:59;14.70;;;9.33;;
13040;SDS011;6587;42.728;23.288;2023-03-04T07:22:27;19.30;;;11.10;;
13040;SDS011;6587;42.728;23.288;2023-03-04T07:24:53;19.80;;;10.73;;
13040;SDS011;6587;42.728;23.288;2023-03-04T07:27:20;19.37;;;10.63;;
13040;SDS011;6587;42.728;23.288;2023-03-04T07:29:46;22.60;;;10.87;;
13040;SDS011;6587;42.728;23.288;2023-03-04T07:32:13;21.10;;;12.43;;
13040;SDS011;6587;42.728;23.288;2023-03-04T07:34:39;20.13;;;12.37;;
13040;SDS011;6587;42.728;23.288;2023-03-04T07:37:06;25.27;;;13.93;;
13040;SDS011;6587;42.728;23.288;2023-03-04T07:39:34;21.23;;;12.57;;
13040;SDS011;6587;42.728;23.288;2023-03-04T07:42:00;19.63;;;11.50;;
13040;SDS011;6587;42.728;23.288;2023-03-04T07:44:27;18.07;;;10.90;;
13040;SDS011;6587;42.728;23.288;2023-03-04T07:46:54;18.53;;;11.33;;
13040;SDS011;6587;42.728;23.288;2023-03-04T07:49:20;22.50;;;12.87;;
13040;SDS011;6587;42.728;23.288;2023-03-04T07:51:47;24.90;;;12.63;;
13040;SDS011;6587;42.728;23.288;2023-03-04T07:54:14;19.70;;;11.60;;
13040;SDS011;6587;42.728;23.288;2023-03-04T07:56:42;20.13;;;11.10;;
13040;SDS011;6587;42.728;23.288;2023-03-04T07:59:08;22.67;;;13.50;;
13040;SDS011;6587;42.728;23.288;2023-03-04T08:01:35;25.07;;;14.50;;
13040;SDS011;6587;42.728;23.288;2023-03-04T08:04:02;20.77;;;12.03;;
13040;SDS011;6587;42.728;23.288;2023-03-04T08:06:29;17.03;;;9.93;;
13040;SDS011;6587;42.728;23.288;2023-03-04T08:08:57;21.57;;;10.63;;
13040;SDS011;6587;42.728;23.288;2023-03-04T08:11:24;19.13;;;10.87;;
13040;SDS011;6587;42.728;23.288;2023-03-04T08:13:52;23.47;;;10.80;;
13040;SDS011;6587;42.728;23.288;2023-03-04T08:16:19;25.90;;;12.23;;
13040;SDS011;6587;42.728;23.288;2023-03-04T08:18:47;24.60;;;13.17;;
13040;SDS011;6587;42.728;23.288;2023-03-04T08:21:15;24.67;;;12.60;;
13040;SDS011;6587;42.728;23.288;2023-03-04T08:23:43;23.00;;;12.47;;
13040;SDS011;6587;42.728;23.288;2023-03-04T08:26:11;23.37;;;12.83;;
13040;SDS011;6587;42.728;23.288;2023-03-04T08:28:38;25.07;;;12.83;;
13040;SDS011;6587;42.728;23.288;2023-03-04T08:31:06;28.10;;;12.67;;
13040;SDS011;6587;42.728;23.288;2023-03-04T08:33:32;22.80;;;12.33;;
13040;SDS011;6587;42.728;23.288;2023-03-04T08:35:59;22.63;;;13.47;;
13040;SDS011;6587;42.728;23.288;2023-03-04T08:38:26;20.50;;;11.40;;
13040;SDS011;6587;42.728;23.288;2023-03-04T08:40:52;20.17;;;11.50;;
13040;SDS011;6587;42.728;23.288;2023-03-04T08:43:19;18.07;;;9.97;;
13040;SDS011;6587;42.728;23.288;2023-03-04T08:45:46;21.60;;;11.73;;
13040;SDS011;6587;42.728;23.288;2023-03-04T08:48:14;20.87;;;11.10;;
13040;SDS011;6587;42.728;23.288;2023-03-04T08:50:42;21.63;;;12.43;;
13040;SDS011;6587;42.728;23.288;2023-03-04T08:53:09;24.73;;;12.63;;
13040;SDS011;6587;42.728;23.288;2023-03-04T08:55:36;21.67;;;11.47;;
13040;SDS011;6587;42.728;23.288;2023-03-04T08:58:03;29.53;;;14.07;;
13040;SDS011;6587;42.728;23.288;2023-03-04T09:00:30;23.00;;;13.73;;
13040;SDS011;6587;42.728;23.288;2023-03-04T09:02:56;26.27;;;12.83;;
13040;SDS011;6587;42.728;23.288;2023-03-04T09:05:24;22.97;;;12.67;;
13040;SDS011;6587;42.728;23.288;2023-03-04T09:07:51;27.70;;;13.13;;
13040;SDS011;6587;42.728;23.288;2023-03-04T09:10:18;25.03;;;13.60;;
13040;SDS011;6587;42.728;23.288;2023-03-04T09:12:45;19.03;;;10.57;;
13040;SDS011;6587;42.728;23.288;2023-03-04T09:15:12;20.40;;;10.73;;
13040;SDS011;6587;42.728;23.288;2023-03-04T09:17:39;16.97;;;10.23;;
13040;SDS011;6587;42.728;23.288;2023-03-04T09:20:06;19.00;;;10.43;;
13040;SDS011;6587;42.728;23.288;2023-03-04T09:22:36;21.93;;;12.30;;
13040;SDS011;6587;42.728;23.288;2023-03-04T09:25:03;21.83;;;13.13;;
13040;SDS011;6587;42.728;23.288;2023-03-04T09:27:29;20.83;;;12.50;;
13040;SDS011;6587;42.728;23.288;2023-03-04T09:29:56;20.07;;;11.60;;
13040;SDS011;6587;42.728;23.288;2023-03-04T09:32:23;20.50;;;11.70;;
13040;SDS011;6587;42.728;23.288;2023-03-04T09:34:49;22.57;;;11.70;;
13040;SDS011;6587;42.728;23.288;2023-03-04T09:37:16;20.07;;;10.47;;
13040;SDS011;6587;42.728;23.288;2023-03-04T09:39:44;18.07;;;10.87;;
13040;SDS011;6587;42.728;23.288;2023-03-04T09:42:11;18.37;;;10.47;;
13040;SDS011;6587;42.728;23.288;2023-03-04T09:44:39;19.50;;;11.67;;
13040;SDS011;6587;42.728;23.288;2023-03-04T09:47:08;17.63;;;9.90;;
13040;SDS011;6587;42.728;23.288;2023-03-04T09:49:36;23.37;;;10.87;;
13040;SDS011;6587;42.728;23.288;2023-03-04T09:52:05;20.43;;;10.50;;
13040;SDS011;6587;42.728;23.288;2023-03-04T09:54:38;21.60;;;11.27;;
13040;SDS011;6587;42.728;23.288;2023-03-04T09:57:16;24.40;;;11.40;;
13040;SDS011;6587;42.728;23.288;2023-03-04T09:59:47;18.13;;;10.67;;
13040;SDS011;6587;42.728;23.288;2023-03-04T10:02:15;19.93;;;10.97;;
13040;SDS011;6587;42.728;23.288;2023-03-04T10:04:45;21.37;;;12.23;;
13040;SDS011;6587;42.728;23.288;2023-03-04T10:07:14;21.07;;;12.57;;
13040;SDS011;6587;42.728;23.288;2023-03-04T10:09:43;20.13;;;11.83;;
13040;SDS011;6587;42.728;23.288;2023-03-04T10:12:13;20.90;;;11.93;;
13040;SDS011;6587;42.728;23.288;2023-03-04T10:14:43;19.13;;;11.43;;
13040;SDS011;6587;42.728;23.288;2023-03-04T10:17:13;18.53;;;11.17;;
13040;SDS011;6587;42.728;23.288;2023-03-04T10:19:48;22.83;;;11.00;;
13040;SDS011;6587;42.728;23.288;2023-03-04T10:22:19;17.40;;;10.60;;
13040;SDS011;6587;42.728;23.288;2023-03-04T10:24:48;22.40;;;11.57;;
13040;SDS011;6587;42.728;23.288;2023-03-04T10:27:16;18.43;;;10.83;;
13040;SDS011;6587;42.728;23.288;2023-03-04T10:29:45;20.53;;;11.87;;
13040;SDS011;6587;42.728;23.288;2023-03-04T10:32:12;21.70;;;13.67;;
13040;SDS011;6587;42.728;23.288;2023-03-04T10:34:39;21.07;;;12.50;;
13040;SDS011;6587;42.728;23.288;2023-03-04T10:37:06;22.17;;;13.00;;
13040;SDS011;6587;42.728;23.288;2023-03-04T10:39:34;25.53;;;13.20;;
13040;SDS011;6587;42.728;23.288;2023-03-04T10:42:02;20.40;;;12.17;;
13040;SDS011;6587;42.728;23.288;2023-03-04T10:44:29;22.83;;;12.30;;
13040;SDS011;6587;42.728;23.288;2023-03-04T10:46:57;21.03;;;12.60;;
13040;SDS011;6587;42.728;23.288;2023-03-04T10:49:25;22.50;;;12.53;;
13040;SDS011;6587;42.728;23.288;2023-03-04T10:51:53;22.83;;;13.23;;
13040;SDS011;6587;42.728;23.288;2023-03-04T10:54:26;19.47;;;12.10;;
13040;SDS011;6587;42.728;23.288;2023-03-04T10:56:55;23.17;;;11.43;;
13040;SDS011;6587;42.728;23.288;2023-03-04T11:02:19;19.47;;;12.03;;
13040;SDS011;6587;42.728;23.288;2023-03-04T11:04:50;18.33;;;11.43;;
13040;SDS011;6587;42.728;23.288;2023-03-04T11:07:18;20.73;;;11.93;;
13040;SDS011;6587;42.728;23.288;2023-03-04T11:09:44;18.10;;;11.90;;
13040;SDS011;6587;42.728;23.288;2023-03-04T11:12:12;19.60;;;12.20;;
13040;SDS011;6587;42.728;23.288;2023-03-04T11:14:39;21.50;;;12.43;;
13040;SDS011;6587;42.728;23.288;2023-03-04T11:17:16;23.17;;;12.53;;
13040;SDS011;6587;42.728;23.288;2023-03-04T11:19:44;25.20;;;12.50;;
13040;SDS011;6587;42.728;23.288;2023-03-04T11:22:13;24.23;;;12.67;;
13040;SDS011;6587;42.728;23.288;2023-03-04T11:24:41;16.70;;;11.10;;
13040;SDS011;6587;42.728;23.288;2023-03-04T11:27:11;21.37;;;12.17;;
13040;SDS011;6587;42.728;23.288;2023-03-04T11:29:41;21.20;;;11.83;;
13040;SDS011;6587;42.728;23.288;2023-03-04T11:32:09;20.80;;;11.73;;
13040;SDS011;6587;42.728;23.288;2023-03-04T11:34:38;19.97;;;11.87;;
13040;SDS011;6587;42.728;23.288;2023-03-04T11:37:09;19.47;;;11.73;;
13040;SDS011;6587;42.728;23.288;2023-03-04T11:39:38;22.63;;;12.93;;
13040;SDS011;6587;42.728;23.288;2023-03-04T11:42:09;21.47;;;12.93;;
13040;SDS011;6587;42.728;23.288;2023-03-04T11:44:38;21.00;;;12.77;;
13040;SDS011;6587;42.728;23.288;2023-03-04T11:47:07;22.03;;;12.93;;
13040;SDS011;6587;42.728;23.288;2023-03-04T11:49:45;21.47;;;12.30;;
13040;SDS011;6587;42.728;23.288;2023-03-04T11:52:17;18.70;;;12.07;;
13040;SDS011;6587;42.728;23.288;2023-03-04T11:54:50;22.43;;;13.20;;
13040;SDS011;6587;42.728;23.288;2023-03-04T11:57:22;22.83;;;13.37;;
13040;SDS011;6587;42.728;23.288;2023-03-04T11:59:55;22.83;;;13.87;;
13040;SDS011;6587;42.728;23.288;2023-03-04T12:02:27;19.60;;;13.10;;
13040;SDS011;6587;42.728;23.288;2023-03-04T12:05:02;26.83;;;13.93;;
13040;SDS011;6587;42.728;23.288;2023-03-04T12:07:45;23.97;;;14.03;;
13040;SDS011;6587;42.728;23.288;2023-03-04T12:10:19;23.80;;;13.90;;
13040;SDS011;6587;42.728;23.288;2023-03-04T12:12:55;23.03;;;12.67;;
13040;SDS011;6587;42.728;23.288;2023-03-04T12:15:27;22.37;;;13.60;;
13040;SDS011;6587;42.728;23.288;2023-03-04T12:20:43;24.50;;;13.20;;
13040;SDS011;6587;42.728;23.288;2023-03-04T12:23:19;25.33;;;13.43;;
13040;SDS011;6587;42.728;23.288;2023-03-04T12:25:50;22.80;;;13.80;;
13040;SDS011;6587;42.728;23.288;2023-03-04T12:28:30;20.17;;;12.60;;
13040;SDS011;6587;42.728;23.288;2023-03-04T12:31:06;21.87;;;12.57;;
13040;SDS011;6587;42.728;23.288;2023-03-04T12:33:40;23.77;;;13.87;;
13040;SDS011;6587;42.728;23.288;2023-03-04T12:36:11;20.97;;;13.50;;
13040;SDS011;6587;42.728;23.288;2023-03-04T12:38:44;23.40;;;12.80;;
13040;SDS011;6587;42.728;23.288;2023-03-04T12:41:21;20.07;;;12.73;;
13040;SDS011;6587;42.728;23.288;2023-03-04T12:43:52;26.23;;;14.00;;
13040;SDS011;6587;42.728;23.288;2023-03-04T12:46:26;23.97;;;13.03;;
13040;SDS011;6587;42.728;23.288;2023-03-04T12:49:13;18.63;;;12.93;;
13040;SDS011;6587;42.728;23.288;2023-03-04T12:51:43;22.80;;;13.37;;
13040;SDS011;6587;42.728;23.288;2023-03-04T12:54:15;22.10;;;13.03;;
13040;SDS011;6587;42.728;23.288;2023-03-04T12:56:43;28.90;;;15.87;;
13040;SDS011;6587;42.728;23.288;2023-03-04T12:59:13;25.80;;;14.87;;
13040;SDS011;6587;42.728;23.288;2023-03-04T13:01:41;32.17;;;16.57;;
13040;SDS011;6587;42.728;23.288;2023-03-04T13:04:11;24.00;;;14.57;;
13040;SDS011;6587;42.728;23.288;2023-03-04T13:06:42;24.40;;;13.50;;
13040;SDS011;6587;42.728;23.288;2023-03-04T13:09:17;21.90;;;12.73;;
13040;SDS011;6587;42.728;23.288;2023-03-04T13:11:52;25.53;;;16.00;;
13040;SDS011;6587;42.728;23.288;2023-03-04T13:19:50;27.87;;;16.73;;
13040;SDS011;6587;42.728;23.288;2023-03-04T13:25:01;25.97;;;15.43;;
13040;SDS011;6587;42.728;23.288;2023-03-04T13:35:57;27.80;;;14.83;;
13040;SDS011;6587;42.728;23.288;2023-03-04T13:38:31;28.90;;;16.20;;
13040;SDS011;6587;42.728;23.288;2023-03-04T13:41:12;32.53;;;19.87;;
13040;SDS011;6587;42.728;23.288;2023-03-04T13:43:40;30.47;;;15.30;;
13040;SDS011;6587;42.728;23.288;2023-03-04T13:49:00;25.37;;;14.57;;
13040;SDS011;6587;42.728;23.288;2023-03-04T13:51:28;25.40;;;13.90;;
13040;SDS011;6587;42.728;23.288;2023-03-04T13:53:55;28.30;;;16.43;;
13040;SDS011;6587;42.728;23.288;2023-03-04T13:56:33;28.03;;;16.17;;
13040;SDS011;6587;42.728;23.288;2023-03-04T14:01:54;30.07;;;16.17;;
13040;SDS011;6587;42.728;23.288;2023-03-04T14:04:21;25.87;;;15.10;;
13040;SDS011;6587;42.728;23.288;2023-03-04T14:06:49;30.10;;;15.40;;
13040;SDS011;6587;42.728;23.288;2023-03-04T14:09:18;28.47;;;16.67;;
13040;SDS011;6587;42.728;23.288;2023-03-04T14:11:47;27.37;;;15.17;;
13040;SDS011;6587;42.728;23.288;2023-03-04T14:14:20;25.93;;;15.60;;
13040;SDS011;6587;42.728;23.288;2023-03-04T14:16:48;29.00;;;16.57;;
13040;SDS011;6587;42.728;23.288;2023-03-04T14:19:16;31.30;;;18.00;;
13040;SDS011;6587;42.728;23.288;2023-03-04T14:21:44;31.23;;;17.00;;
13040;SDS011;6587;42.728;23.288;2023-03-04T14:24:12;31.43;;;17.40;;
13040;SDS011;6587;42.728;23.288;2023-03-04T14:26:38;28.33;;;16.77;;
13040;SDS011;6587;42.728;23.288;2023-03-04T14:29:19;30.43;;;18.20;;
13040;SDS011;6587;42.728;23.288;2023-03-04T14:31:46;32.57;;;19.03;;
13040;SDS011;6587;42.728;23.288;2023-03-04T14:34:13;35.20;;;17.93;;
13040;SDS011;6587;42.728;23.288;2023-03-04T14:36:42;32.43;;;18.30;;
13040;SDS011;6587;42.728;23.288;2023-03-04T14:39:12;32.10;;;18.60;;
13040;SDS011;6587;42.728;23.288;2023-03-04T14:41:40;32.43;;;18.13;;
13040;SDS011;6587;42.728;23.288;2023-03-04T14:44:10;32.70;;;17.87;;
13040;SDS011;6587;42.728;23.288;2023-03-04T14:46:39;29.70;;;18.03;;
13040;SDS011;6587;42.728;23.288;2023-03-04T14:49:09;35.70;;;19.10;;
13040;SDS011;6587;42.728;23.288;2023-03-04T14:51:38;34.73;;;18.73;;
13040;SDS011;6587;42.728;23.288;2023-03-04T14:56:49;26.43;;;16.87;;
13040;SDS011;6587;42.728;23.288;2023-03-04T14:59:15;30.57;;;17.60;;